sensor_id;sensor_type;location;lat;lon;timestamp;pressure;altitude;pressure_sealevel;temperature;humidity
34205;BME280;20471;49.680;20.074;2023-05-23T00:00:38;96960.48;;;11.12;67.80
34205;BME280;20471;49.680;20.074;2023-05-23T00:03:26;96956.56;;;11.07;67.78
34205;BME280;20471;49.680;20.074;2023-05-23T00:05:56;96954.15;;;11.01;67.82
34205;BME280;20471;49.680;20.074;2023-05-23T00:08:25;96951.63;;;11.00;67.96
34205;BME280;20471;49.680;20.074;2023-05-23T00:10:53;96952.62;;;10.98;68.05
34205;BME280;20471;49.680;20.074;2023-05-23T00:13:21;96954.71;;;10.96;68.16
34205;BME280;20471;49.680;20.074;2023-05-23T00:15:49;96952.06;;;10.94;68.15
34205;BME280;20471;49.680;20.074;2023-05-23T00:18:17;96949.96;;;10.89;68.29
34205;BME280;20471;49.680;20.074;2023-05-23T00:20:45;96950.39;;;10.85;68.20
34205;BME280;20471;49.680;20.074;2023-05-23T00:23:14;96948.08;;;10.82;68.22
34205;BME280;20471;49.680;20.074;2023-05-23T00:25:44;96948.30;;;10.80;68.30
34205;BME280;20471;49.680;20.074;2023-05-23T00:28:18;96948.27;;;10.79;68.18
34205;BME280;20471;49.680;20.074;2023-05-23T00:30:46;96947.42;;;10.77;68.25
34205;BME280;20471;49.680;20.074;2023-05-23T00:33:16;96947.80;;;10.73;68.26
34205;BME280;20471;49.680;20.074;2023-05-23T00:35:47;96948.88;;;10.69;68.42
34205;BME280;20471;49.680;20.074;2023-05-23T00:38:15;96947.88;;;10.65;68.34
34205;BME280;20471;49.680;20.074;2023-05-23T00:40:44;96951.39;;;10.58;68.42
34205;BME280;20471;49.680;20.074;2023-05-23T00:43:12;96954.13;;;10.53;68.44
34205;BME280;20471;49.680;20.074;2023-05-23T00:45:40;96955.92;;;10.50;68.58
34205;BME280;20471;49.680;20.074;2023-05-23T00:48:08;96960.52;;;10.45;68.59
34205;BME280;20471;49.680;20.074;2023-05-23T00:50:36;96960.55;;;10.41;68.64
34205;BME280;20471;49.680;20.074;2023-05-23T00:53:04;96957.89;;;10.38;68.77
34205;BME280;20471;49.680;20.074;2023-05-23T00:55:32;96960.48;;;10.36;68.82
34205;BME280;20471;49.680;20.074;2023-05-23T00:58:01;96958.33;;;10.35;68.88
34205;BME280;20471;49.680;20.074;2023-05-23T01:00:29;96958.27;;;10.33;68.94
34205;BME280;20471;49.680;20.074;2023-05-23T01:02:57;96958.52;;;10.31;68.93
34205;BME280;20471;49.680;20.074;2023-05-23T01:05:26;96956.38;;;10.29;68.95
34205;BME280;20471;49.680;20.074;2023-05-23T01:07:54;96954.27;;;10.27;68.89
34205;BME280;20471;49.680;20.074;2023-05-23T01:10:25;96953.36;;;10.24;68.91
34205;BME280;20471;49.680;20.074;2023-05-23T01:15:39;96954.26;;;10.16;69.17
34205;BME280;20471;49.680;20.074;2023-05-23T01:18:15;96955.87;;;10.14;69.09
34205;BME280;20471;49.680;20.074;2023-05-23T01:20:54;96955.80;;;10.10;69.10
34205;BME280;20471;49.680;20.074;2023-05-23T01:23:52;96953.93;;;10.05;69.17
34205;BME280;20471;49.680;20.074;2023-05-23T01:29:25;96955.30;;;9.86;69.17
34205;BME280;20471;49.680;20.074;2023-05-23T01:31:56;96952.23;;;9.75;69.26
34205;BME280;20471;49.680;20.074;2023-05-23T01:34:25;96950.38;;;9.73;69.43
34205;BME280;20471;49.680;20.074;2023-05-23T01:36:54;96947.98;;;9.69;69.62
34205;BME280;20471;49.680;20.074;2023-05-23T01:39:22;96946.45;;;9.64;69.63
34205;BME280;20471;49.680;20.074;2023-05-23T01:41:51;96946.45;;;9.65;69.86
34205;BME280;20471;49.680;20.074;2023-05-23T01:44:21;96943.96;;;9.70;69.97
34205;BME280;20471;49.680;20.074;2023-05-23T01:46:49;96943.54;;;9.73;69.94
34205;BME280;20471;49.680;20.074;2023-05-23T01:49:18;96945.32;;;9.73;69.66
34205;BME280;20471;49.680;20.074;2023-05-23T01:51:47;96942.02;;;9.71;69.52
34205;BME280;20471;49.680;20.074;2023-05-23T01:54:16;96939.61;;;9.69;69.66
34205;BME280;20471;49.680;20.074;2023-05-23T01:56:46;96937.35;;;9.67;69.68
34205;BME280;20471;49.680;20.074;2023-05-23T01:59:15;96936.96;;;9.63;69.74
34205;BME280;20471;49.680;20.074;2023-05-23T02:01:43;96936.90;;;9.61;69.76
34205;BME280;20471;49.680;20.074;2023-05-23T02:04:12;96930.43;;;9.59;69.68
34205;BME280;20471;49.680;20.074;2023-05-23T02:06:40;96933.59;;;9.55;69.67
34205;BME280;20471;49.680;20.074;2023-05-23T02:09:08;96931.31;;;9.53;69.79
34205;BME280;20471;49.680;20.074;2023-05-23T02:11:36;96932.80;;;9.52;69.75
34205;BME280;20471;49.680;20.074;2023-05-23T02:14:05;96931.33;;;9.50;69.76
34205;BME280;20471;49.680;20.074;2023-05-23T02:16:33;96929.64;;;9.47;69.78
34205;BME280;20471;49.680;20.074;2023-05-23T02:19:02;96929.23;;;9.43;69.88
34205;BME280;20471;49.680;20.074;2023-05-23T02:21:30;96930.77;;;9.40;69.92
34205;BME280;20471;49.680;20.074;2023-05-23T02:23:58;96929.73;;;9.38;69.89
34205;BME280;20471;49.680;20.074;2023-05-23T02:26:26;96932.55;;;9.36;69.92
34205;BME280;20471;49.680;20.074;2023-05-23T02:28:54;96931.03;;;9.33;70.06
34205;BME280;20471;49.680;20.074;2023-05-23T02:31:22;96929.02;;;9.29;70.06
34205;BME280;20471;49.680;20.074;2023-05-23T02:33:50;96926.10;;;9.28;70.20
34205;BME280;20471;49.680;20.074;2023-05-23T02:36:19;96925.82;;;9.26;70.27
34205;BME280;20471;49.680;20.074;2023-05-23T02:38:47;96924.04;;;9.26;70.39
34205;BME280;20471;49.680;20.074;2023-05-23T02:41:15;96920.81;;;9.23;70.44
34205;BME280;20471;49.680;20.074;2023-05-23T02:43:46;96924.41;;;9.13;70.44
34205;BME280;20471;49.680;20.074;2023-05-23T02:46:14;96922.31;;;9.05;70.54
34205;BME280;20471;49.680;20.074;2023-05-23T02:48:42;96922.56;;;9.02;70.78
34205;BME280;20471;49.680;20.074;2023-05-23T02:51:10;96914.84;;;9.06;70.93
34205;BME280;20471;49.680;20.074;2023-05-23T02:53:39;96918.50;;;9.09;70.93
34205;BME280;20471;49.680;20.074;2023-05-23T02:56:08;96918.38;;;9.10;70.83
34205;BME280;20471;49.680;20.074;2023-05-23T02:58:36;96919.35;;;9.07;70.82
34205;BME280;20471;49.680;20.074;2023-05-23T03:01:05;96920.16;;;9.03;70.81
34205;BME280;20471;49.680;20.074;2023-05-23T03:03:33;96915.77;;;9.03;70.78
34205;BME280;20471;49.680;20.074;2023-05-23T03:06:02;96919.13;;;9.00;70.90
34205;BME280;20471;49.680;20.074;2023-05-23T03:08:30;96917.35;;;8.97;70.85
34205;BME280;20471;49.680;20.074;2023-05-23T03:10:58;96917.73;;;8.96;70.78
34205;BME280;20471;49.680;20.074;2023-05-23T03:13:27;96919.09;;;8.95;70.87
34205;BME280;20471;49.680;20.074;2023-05-23T03:15:55;96916.36;;;8.94;70.86
34205;BME280;20471;49.680;20.074;2023-05-23T03:18:23;96913.06;;;8.94;70.91
34205;BME280;20471;49.680;20.074;2023-05-23T03:20:51;96911.59;;;8.93;70.98
34205;BME280;20471;49.680;20.074;2023-05-23T03:23:19;96914.86;;;8.91;70.96
34205;BME280;20471;49.680;20.074;2023-05-23T03:25:48;96911.02;;;8.90;70.98
34205;BME280;20471;49.680;20.074;2023-05-23T03:28:16;96907.95;;;8.90;71.13
34205;BME280;20471;49.680;20.074;2023-05-23T03:30:44;96905.09;;;8.90;71.23
34205;BME280;20471;49.680;20.074;2023-05-23T03:33:12;96906.00;;;8.90;71.25
34205;BME280;20471;49.680;20.074;2023-05-23T03:35:40;96907.54;;;8.92;71.31
34205;BME280;20471;49.680;20.074;2023-05-23T03:38:08;96908.14;;;8.93;71.35
34205;BME280;20471;49.680;20.074;2023-05-23T03:40:36;96907.48;;;8.92;71.36
34205;BME280;20471;49.680;20.074;2023-05-23T03:43:05;96903.86;;;8.94;71.45
34205;BME280;20471;49.680;20.074;2023-05-23T03:45:33;96906.55;;;8.95;71.53
34205;BME280;20471;49.680;20.074;2023-05-23T03:48:02;96910.31;;;8.97;71.61
34205;BME280;20471;49.680;20.074;2023-05-23T03:50:30;96912.13;;;8.98;71.66
34205;BME280;20471;49.680;20.074;2023-05-23T03:52:58;96911.55;;;8.99;71.75
34205;BME280;20471;49.680;20.074;2023-05-23T03:55:26;96907.23;;;9.02;71.84
34205;BME280;20471;49.680;20.074;2023-05-23T03:57:57;96905.64;;;9.07;71.95
34205;BME280;20471;49.680;20.074;2023-05-23T04:00:25;96903.05;;;9.12;72.05
34205;BME280;20471;49.680;20.074;2023-05-23T04:02:54;96901.02;;;9.16;72.14
34205;BME280;20471;49.680;20.074;2023-05-23T04:05:22;96898.83;;;9.20;72.21
34205;BME280;20471;49.680;20.074;2023-05-23T04:07:51;96897.61;;;9.25;72.20
34205;BME280;20471;49.680;20.074;2023-05-23T04:10:19;96895.82;;;9.31;72.21
34205;BME280;20471;49.680;20.074;2023-05-23T04:12:47;96894.97;;;9.37;72.33
34205;BME280;20471;49.680;20.074;2023-05-23T04:15:15;96895.09;;;9.42;72.28
34205;BME280;20471;49.680;20.074;2023-05-23T04:17:43;96893.33;;;9.48;72.20
34205;BME280;20471;49.680;20.074;2023-05-23T04:20:11;96892.54;;;9.54;72.13
34205;BME280;20471;49.680;20.074;2023-05-23T04:22:39;96891.27;;;9.59;72.10
34205;BME280;20471;49.680;20.074;2023-05-23T04:25:08;96890.23;;;9.65;72.10
34205;BME280;20471;49.680;20.074;2023-05-23T04:27:36;96888.15;;;9.70;72.35
34205;BME280;20471;49.680;20.074;2023-05-23T04:30:06;96890.45;;;9.76;72.40
34205;BME280;20471;49.680;20.074;2023-05-23T04:32:36;96887.95;;;9.81;72.30
34205;BME280;20471;49.680;20.074;2023-05-23T04:35:04;96887.20;;;9.87;72.30
34205;BME280;20471;49.680;20.074;2023-05-23T04:37:32;96884.41;;;9.94;72.23
34205;BME280;20471;49.680;20.074;2023-05-23T04:40:00;96882.08;;;10.01;72.14
34205;BME280;20471;49.680;20.074;2023-05-23T04:42:29;96875.67;;;10.07;72.16
34205;BME280;20471;49.680;20.074;2023-05-23T04:44:59;96877.88;;;10.16;72.29
34205;BME280;20471;49.680;20.074;2023-05-23T04:47:27;96876.34;;;10.24;72.28
34205;BME280;20471;49.680;20.074;2023-05-23T04:50:00;96874.60;;;10.31;72.18
34205;BME280;20471;49.680;20.074;2023-05-23T04:52:29;96871.23;;;10.37;72.33
34205;BME280;20471;49.680;20.074;2023-05-23T04:54:59;96871.20;;;10.43;72.32
34205;BME280;20471;49.680;20.074;2023-05-23T04:57:27;96871.77;;;10.49;72.32
34205;BME280;20471;49.680;20.074;2023-05-23T04:59:55;96866.64;;;10.55;72.30
34205;BME280;20471;49.680;20.074;2023-05-23T05:02:23;96867.07;;;10.62;72.39
34205;BME280;20471;49.680;20.074;2023-05-23T05:04:52;96865.23;;;10.70;72.61
34205;BME280;20471;49.680;20.074;2023-05-23T05:07:21;96864.38;;;10.78;72.94
34205;BME280;20471;49.680;20.074;2023-05-23T05:09:49;96859.91;;;10.88;72.79
34205;BME280;20471;49.680;20.074;2023-05-23T05:12:16;96856.52;;;10.98;72.82
34205;BME280;20471;49.680;20.074;2023-05-23T05:14:44;96856.27;;;11.08;72.66
34205;BME280;20471;49.680;20.074;2023-05-23T05:17:13;96850.08;;;11.19;72.43
34205;BME280;20471;49.680;20.074;2023-05-23T05:19:44;96850.36;;;11.29;72.34
34205;BME280;20471;49.680;20.074;2023-05-23T05:22:13;96848.46;;;11.39;72.18
34205;BME280;20471;49.680;20.074;2023-05-23T05:24:41;96847.04;;;11.49;72.16
34205;BME280;20471;49.680;20.074;2023-05-23T05:27:09;96844.05;;;11.59;71.95
34205;BME280;20471;49.680;20.074;2023-05-23T05:29:37;96845.02;;;11.69;71.98
34205;BME280;20471;49.680;20.074;2023-05-23T05:32:05;96847.55;;;11.78;72.14
34205;BME280;20471;49.680;20.074;2023-05-23T05:34:35;96849.02;;;11.89;72.24
34205;BME280;20471;49.680;20.074;2023-05-23T05:37:03;96845.90;;;11.99;72.08
34205;BME280;20471;49.680;20.074;2023-05-23T05:39:31;96843.81;;;12.09;71.95
34205;BME280;20471;49.680;20.074;2023-05-23T05:41:59;96845.54;;;12.20;72.02
34205;BME280;20471;49.680;20.074;2023-05-23T05:44:29;96843.89;;;12.30;71.97
34205;BME280;20471;49.680;20.074;2023-05-23T05:46:57;96844.73;;;12.41;71.87
34205;BME280;20471;49.680;20.074;2023-05-23T05:49:25;96839.79;;;12.52;71.71
34205;BME280;20471;49.680;20.074;2023-05-23T05:51:54;96835.70;;;12.63;71.41
34205;BME280;20471;49.680;20.074;2023-05-23T05:54:22;96830.59;;;12.75;71.07
34205;BME280;20471;49.680;20.074;2023-05-23T05:56:50;96828.13;;;12.87;71.09
34205;BME280;20471;49.680;20.074;2023-05-23T05:59:18;96822.86;;;13.00;71.08
34205;BME280;20471;49.680;20.074;2023-05-23T06:01:46;96821.11;;;13.12;70.97
34205;BME280;20471;49.680;20.074;2023-05-23T06:04:16;96818.40;;;13.25;70.77
34205;BME280;20471;49.680;20.074;2023-05-23T06:06:45;96812.98;;;13.38;70.64
34205;BME280;20471;49.680;20.074;2023-05-23T06:09:13;96809.39;;;13.49;70.33
34205;BME280;20471;49.680;20.074;2023-05-23T06:11:41;96807.36;;;13.60;70.11
34205;BME280;20471;49.680;20.074;2023-05-23T06:14:09;96802.80;;;13.72;69.90
34205;BME280;20471;49.680;20.074;2023-05-23T06:16:37;96803.96;;;13.83;69.63
34205;BME280;20471;49.680;20.074;2023-05-23T06:19:05;96799.74;;;13.94;69.53
34205;BME280;20471;49.680;20.074;2023-05-23T06:21:33;96799.27;;;14.06;69.53
34205;BME280;20471;49.680;20.074;2023-05-23T06:24:02;96801.23;;;14.19;69.46
34205;BME280;20471;49.680;20.074;2023-05-23T06:26:30;96793.79;;;14.30;69.07
34205;BME280;20471;49.680;20.074;2023-05-23T06:28:59;96792.45;;;14.42;68.71
34205;BME280;20471;49.680;20.074;2023-05-23T06:31:27;96794.86;;;14.55;68.94
34205;BME280;20471;49.680;20.074;2023-05-23T06:33:55;96788.30;;;14.68;68.69
34205;BME280;20471;49.680;20.074;2023-05-23T06:36:23;96787.77;;;14.82;68.55
34205;BME280;20471;49.680;20.074;2023-05-23T06:38:51;96784.77;;;14.95;68.34
34205;BME280;20471;49.680;20.074;2023-05-23T06:41:19;96788.66;;;15.07;67.94
34205;BME280;20471;49.680;20.074;2023-05-23T06:43:48;96788.14;;;15.19;67.51
34205;BME280;20471;49.680;20.074;2023-05-23T06:46:16;96784.63;;;15.31;67.25
34205;BME280;20471;49.680;20.074;2023-05-23T06:48:44;96781.05;;;15.44;66.93
34205;BME280;20471;49.680;20.074;2023-05-23T06:51:12;96781.70;;;15.59;67.14
34205;BME280;20471;49.680;20.074;2023-05-23T06:53:40;96782.42;;;15.76;66.85
34205;BME280;20471;49.680;20.074;2023-05-23T06:56:09;96773.88;;;15.91;66.58
34205;BME280;20471;49.680;20.074;2023-05-23T06:58:37;96772.52;;;16.05;66.39
34205;BME280;20471;49.680;20.074;2023-05-23T07:01:05;96768.72;;;16.22;66.08
34205;BME280;20471;49.680;20.074;2023-05-23T07:03:33;96767.50;;;16.37;66.44
34205;BME280;20471;49.680;20.074;2023-05-23T07:06:04;96768.30;;;16.53;66.35
34205;BME280;20471;49.680;20.074;2023-05-23T07:08:32;96766.31;;;16.66;66.01
34205;BME280;20471;49.680;20.074;2023-05-23T07:11:00;96762.52;;;16.81;66.07
34205;BME280;20471;49.680;20.074;2023-05-23T07:13:29;96757.63;;;16.97;65.73
34205;BME280;20471;49.680;20.074;2023-05-23T07:15:57;96751.62;;;17.14;65.78
34205;BME280;20471;49.680;20.074;2023-05-23T07:18:25;96751.89;;;17.32;65.11
34205;BME280;20471;49.680;20.074;2023-05-23T07:20:53;96748.85;;;17.45;64.33
34205;BME280;20471;49.680;20.074;2023-05-23T07:23:22;96748.88;;;17.60;64.35
34205;BME280;20471;49.680;20.074;2023-05-23T07:25:51;96745.79;;;17.78;64.64
34205;BME280;20471;49.680;20.074;2023-05-23T07:28:19;96743.65;;;17.95;64.39
34205;BME280;20471;49.680;20.074;2023-05-23T07:30:48;96741.73;;;18.12;64.45
34205;BME280;20471;49.680;20.074;2023-05-23T07:33:16;96745.57;;;18.29;63.90
34205;BME280;20471;49.680;20.074;2023-05-23T07:35:44;96742.30;;;18.47;63.43
34205;BME280;20471;49.680;20.074;2023-05-23T07:38:12;96742.98;;;18.66;63.52
34205;BME280;20471;49.680;20.074;2023-05-23T07:40:40;96740.33;;;18.88;63.26
34205;BME280;20471;49.680;20.074;2023-05-23T07:43:08;96739.86;;;19.17;62.96
34205;BME280;20471;49.680;20.074;2023-05-23T07:45:36;96737.86;;;19.51;62.04
34205;BME280;20471;49.680;20.074;2023-05-23T07:48:05;96740.02;;;19.90;61.44
34205;BME280;20471;49.680;20.074;2023-05-23T07:50:33;96742.20;;;20.36;60.61
34205;BME280;20471;49.680;20.074;2023-05-23T07:53:01;96741.52;;;20.79;59.48
34205;BME280;20471;49.680;20.074;2023-05-23T07:55:29;96735.24;;;21.24;58.99
34205;BME280;20471;49.680;20.074;2023-05-23T07:57:57;96733.27;;;21.73;58.94
34205;BME280;20471;49.680;20.074;2023-05-23T08:00:26;96728.69;;;22.19;58.30
34205;BME280;20471;49.680;20.074;2023-05-23T08:02:54;96729.34;;;22.70;56.56
34205;BME280;20471;49.680;20.074;2023-05-23T08:05:23;96728.66;;;23.14;55.57
34205;BME280;20471;49.680;20.074;2023-05-23T08:07:51;96725.73;;;23.62;55.17
34205;BME280;20471;49.680;20.074;2023-05-23T08:10:20;96730.41;;;24.08;53.59
34205;BME280;20471;49.680;20.074;2023-05-23T08:12:48;96726.32;;;24.41;52.59
34205;BME280;20471;49.680;20.074;2023-05-23T08:15:17;96726.76;;;24.78;52.47
34205;BME280;20471;49.680;20.074;2023-05-23T08:17:45;96725.35;;;25.18;51.56
34205;BME280;20471;49.680;20.074;2023-05-23T08:20:14;96726.41;;;25.52;50.57
34205;BME280;20471;49.680;20.074;2023-05-23T08:22:42;96725.63;;;25.86;49.82
34205;BME280;20471;49.680;20.074;2023-05-23T08:25:10;96723.48;;;26.21;48.53
34205;BME280;20471;49.680;20.074;2023-05-23T08:27:38;96722.64;;;26.56;47.88
34205;BME280;20471;49.680;20.074;2023-05-23T08:30:07;96721.14;;;26.93;46.54
34205;BME280;20471;49.680;20.074;2023-05-23T08:32:35;96722.62;;;27.28;45.36
34205;BME280;20471;49.680;20.074;2023-05-23T08:35:04;96725.11;;;27.62;44.70
34205;BME280;20471;49.680;20.074;2023-05-23T08:37:32;96722.27;;;27.98;43.93
34205;BME280;20471;49.680;20.074;2023-05-23T08:40:00;96716.97;;;28.24;43.35
34205;BME280;20471;49.680;20.074;2023-05-23T08:42:29;96718.68;;;28.57;42.75
34205;BME280;20471;49.680;20.074;2023-05-23T08:44:57;96719.14;;;28.81;42.03
34205;BME280;20471;49.680;20.074;2023-05-23T08:47:29;96720.86;;;29.11;41.42
34205;BME280;20471;49.680;20.074;2023-05-23T08:50:01;96721.07;;;29.47;40.34
34205;BME280;20471;49.680;20.074;2023-05-23T08:52:32;96716.17;;;29.76;39.86
34205;BME280;20471;49.680;20.074;2023-05-23T08:55:02;96721.09;;;30.02;39.44
34205;BME280;20471;49.680;20.074;2023-05-23T08:57:32;96719.72;;;30.10;38.69
34205;BME280;20471;49.680;20.074;2023-05-23T09:00:00;96715.23;;;30.09;38.08
34205;BME280;20471;49.680;20.074;2023-05-23T09:02:31;96711.08;;;30.19;38.22
34205;BME280;20471;49.680;20.074;2023-05-23T09:05:00;96708.83;;;30.18;37.84
34205;BME280;20471;49.680;20.074;2023-05-23T09:07:28;96704.73;;;30.34;37.34
34205;BME280;20471;49.680;20.074;2023-05-23T09:09:56;96705.24;;;30.32;37.01
34205;BME280;20471;49.680;20.074;2023-05-23T09:12:25;96703.48;;;30.29;37.02
34205;BME280;20471;49.680;20.074;2023-05-23T09:14:53;96707.09;;;30.51;36.45
34205;BME280;20471;49.680;20.074;2023-05-23T09:17:21;96707.52;;;30.72;35.93
34205;BME280;20471;49.680;20.074;2023-05-23T09:19:49;96706.33;;;30.94;35.47
34205;BME280;20471;49.680;20.074;2023-05-23T09:22:23;96707.28;;;31.19;35.20
34205;BME280;20471;49.680;20.074;2023-05-23T09:24:55;96708.88;;;31.43;34.67
34205;BME280;20471;49.680;20.074;2023-05-23T09:27:23;96704.38;;;31.61;34.33
34205;BME280;20471;49.680;20.074;2023-05-23T09:29:51;96703.08;;;31.43;34.37
34205;BME280;20471;49.680;20.074;2023-05-23T09:32:20;96705.65;;;31.05;34.31
34205;BME280;20471;49.680;20.074;2023-05-23T09:34:58;96707.05;;;30.97;34.15
34205;BME280;20471;49.680;20.074;2023-05-23T09:37:30;96704.17;;;30.66;34.06
34205;BME280;20471;49.680;20.074;2023-05-23T09:40:00;96701.19;;;30.24;34.67
34205;BME280;20471;49.680;20.074;2023-05-23T09:42:32;96699.16;;;29.98;34.72
34205;BME280;20471;49.680;20.074;2023-05-23T09:45:01;96695.90;;;29.82;34.85
34205;BME280;20471;49.680;20.074;2023-05-23T09:47:29;96697.45;;;29.94;34.72
34205;BME280;20471;49.680;20.074;2023-05-23T09:49:58;96694.61;;;30.19;34.21
34205;BME280;20471;49.680;20.074;2023-05-23T09:52:26;96697.67;;;30.43;34.12
34205;BME280;20471;49.680;20.074;2023-05-23T09:54:54;96698.66;;;30.68;33.97
34205;BME280;20471;49.680;20.074;2023-05-23T09:57:23;96695.77;;;30.70;33.83
34205;BME280;20471;49.680;20.074;2023-05-23T09:59:52;96693.63;;;30.67;33.70
34205;BME280;20471;49.680;20.074;2023-05-23T10:05:39;96687.45;;;31.04;32.45
34205;BME280;20471;49.680;20.074;2023-05-23T10:08:15;96689.75;;;31.09;32.52
34205;BME280;20471;49.680;20.074;2023-05-23T10:13:25;96678.86;;;31.13;32.19
34205;BME280;20471;49.680;20.074;2023-05-23T10:16:10;96675.30;;;31.04;32.75
34205;BME280;20471;49.680;20.074;2023-05-23T10:18:43;96678.52;;;30.90;33.31
34205;BME280;20471;49.680;20.074;2023-05-23T10:21:14;96673.91;;;30.87;32.74
34205;BME280;20471;49.680;20.074;2023-05-23T10:23:46;96668.42;;;30.81;32.40
34205;BME280;20471;49.680;20.074;2023-05-23T10:26:16;96663.34;;;30.87;32.78
34205;BME280;20471;49.680;20.074;2023-05-23T10:28:46;96661.01;;;30.93;32.63
34205;BME280;20471;49.680;20.074;2023-05-23T10:31:16;96660.47;;;31.00;32.94
34205;BME280;20471;49.680;20.074;2023-05-23T10:33:51;96656.00;;;30.93;32.61
34205;BME280;20471;49.680;20.074;2023-05-23T10:36:32;96651.94;;;30.67;32.96
34205;BME280;20471;49.680;20.074;2023-05-23T10:39:15;96653.27;;;30.77;32.90
34205;BME280;20471;49.680;20.074;2023-05-23T10:41:50;96649.84;;;30.96;32.03
34205;BME280;20471;49.680;20.074;2023-05-23T10:44:30;96647.80;;;30.97;32.07
34205;BME280;20471;49.680;20.074;2023-05-23T10:46:59;96648.23;;;31.05;32.41
34205;BME280;20471;49.680;20.074;2023-05-23T10:49:41;96646.95;;;31.17;33.05
34205;BME280;20471;49.680;20.074;2023-05-23T10:52:11;96639.77;;;31.27;33.17
34205;BME280;20471;49.680;20.074;2023-05-23T10:54:50;96633.84;;;31.36;33.05
34205;BME280;20471;49.680;20.074;2023-05-23T10:57:25;96630.72;;;31.39;33.26
34205;BME280;20471;49.680;20.074;2023-05-23T10:59:54;96630.05;;;31.27;32.60
34205;BME280;20471;49.680;20.074;2023-05-23T11:02:26;96624.39;;;31.20;31.71
34205;BME280;20471;49.680;20.074;2023-05-23T11:05:17;96631.06;;;31.30;32.27
34205;BME280;20471;49.680;20.074;2023-05-23T11:08:11;96627.84;;;31.39;32.31
34205;BME280;20471;49.680;20.074;2023-05-23T11:13:24;96632.95;;;31.14;33.08
34205;BME280;20471;49.680;20.074;2023-05-23T11:15:52;96629.45;;;31.21;33.04
34205;BME280;20471;49.680;20.074;2023-05-23T11:18:26;96629.84;;;31.28;33.22
34205;BME280;20471;49.680;20.074;2023-05-23T11:20:57;96623.66;;;31.37;32.35
34205;BME280;20471;49.680;20.074;2023-05-23T11:23:40;96618.15;;;31.44;32.43
34205;BME280;20471;49.680;20.074;2023-05-23T11:26:30;96613.66;;;31.46;32.30
34205;BME280;20471;49.680;20.074;2023-05-23T11:28:59;96606.05;;;31.52;32.55
34205;BME280;20471;49.680;20.074;2023-05-23T11:31:29;96602.52;;;31.54;32.33
34205;BME280;20471;49.680;20.074;2023-05-23T11:33:57;96599.15;;;31.57;32.05
34205;BME280;20471;49.680;20.074;2023-05-23T11:36:26;96594.23;;;31.58;31.74
34205;BME280;20471;49.680;20.074;2023-05-23T11:38:54;96594.55;;;31.61;31.88
34205;BME280;20471;49.680;20.074;2023-05-23T11:41:22;96595.56;;;31.57;32.01
34205;BME280;20471;49.680;20.074;2023-05-23T11:43:51;96598.80;;;31.52;31.96
34205;BME280;20471;49.680;20.074;2023-05-23T11:46:19;96597.83;;;31.51;32.02
34205;BME280;20471;49.680;20.074;2023-05-23T11:48:47;96597.71;;;31.38;31.77
34205;BME280;20471;49.680;20.074;2023-05-23T11:51:16;96597.95;;;31.14;31.77
34205;BME280;20471;49.680;20.074;2023-05-23T11:53:46;96599.30;;;30.99;32.66
34205;BME280;20471;49.680;20.074;2023-05-23T11:56:14;96597.02;;;30.94;32.58
34205;BME280;20471;49.680;20.074;2023-05-23T11:58:43;96594.60;;;30.93;32.71
34205;BME280;20471;49.680;20.074;2023-05-23T12:01:11;96591.09;;;30.93;32.34
34205;BME280;20471;49.680;20.074;2023-05-23T12:03:48;96594.84;;;30.79;32.24
34205;BME280;20471;49.680;20.074;2023-05-23T12:06:18;96595.03;;;30.61;32.02
34205;BME280;20471;49.680;20.074;2023-05-23T12:08:46;96592.00;;;30.18;32.51
34205;BME280;20471;49.680;20.074;2023-05-23T12:11:15;96593.52;;;29.78;32.85
34205;BME280;20471;49.680;20.074;2023-05-23T12:13:43;96593.44;;;29.45;33.27
34205;BME280;20471;49.680;20.074;2023-05-23T12:16:12;96588.92;;;29.14;33.61
34205;BME280;20471;49.680;20.074;2023-05-23T12:18:41;96591.37;;;28.93;33.86
34205;BME280;20471;49.680;20.074;2023-05-23T12:21:10;96592.92;;;28.84;33.57
34205;BME280;20471;49.680;20.074;2023-05-23T12:23:56;96590.09;;;28.73;33.10
34205;BME280;20471;49.680;20.074;2023-05-23T12:26:51;96593.59;;;28.59;33.11
34205;BME280;20471;49.680;20.074;2023-05-23T12:29:26;96591.89;;;28.39;33.38
34205;BME280;20471;49.680;20.074;2023-05-23T12:31:57;96588.88;;;28.26;33.95
34205;BME280;20471;49.680;20.074;2023-05-23T12:34:25;96584.73;;;28.15;34.01
34205;BME280;20471;49.680;20.074;2023-05-23T12:36:56;96586.70;;;28.03;34.28
34205;BME280;20471;49.680;20.074;2023-05-23T12:39:27;96586.54;;;27.94;34.50
34205;BME280;20471;49.680;20.074;2023-05-23T12:42:06;96588.13;;;28.06;35.18
34205;BME280;20471;49.680;20.074;2023-05-23T12:44:35;96586.84;;;28.32;35.25
34205;BME280;20471;49.680;20.074;2023-05-23T12:47:03;96591.45;;;28.59;34.88
34205;BME280;20471;49.680;20.074;2023-05-23T12:49:32;96595.79;;;28.74;34.69
34205;BME280;20471;49.680;20.074;2023-05-23T12:52:00;96605.67;;;28.72;34.29
34205;BME280;20471;49.680;20.074;2023-05-23T12:54:28;96621.48;;;28.63;33.89
34205;BME280;20471;49.680;20.074;2023-05-23T12:56:56;96631.70;;;28.41;33.68
34205;BME280;20471;49.680;20.074;2023-05-23T12:59:24;96645.01;;;27.94;32.96
34205;BME280;20471;49.680;20.074;2023-05-23T13:01:53;96651.14;;;27.32;32.35
34205;BME280;20471;49.680;20.074;2023-05-23T13:04:22;96655.81;;;26.69;32.23
34205;BME280;20471;49.680;20.074;2023-05-23T13:06:50;96658.08;;;26.18;32.81
34205;BME280;20471;49.680;20.074;2023-05-23T13:09:18;96653.59;;;25.88;33.21
34205;BME280;20471;49.680;20.074;2023-05-23T13:11:46;96652.36;;;25.61;33.31
34205;BME280;20471;49.680;20.074;2023-05-23T13:14:14;96661.16;;;25.36;33.30
34205;BME280;20471;49.680;20.074;2023-05-23T13:16:42;96660.91;;;25.17;33.36
34205;BME280;20471;49.680;20.074;2023-05-23T13:19:11;96657.71;;;24.95;33.63